sensor_id;sensor_type;location;lat;lon;timestamp;pressure;altitude;pressure_sealevel;temperature;humidity
10646;BME280;5371;49.782;9.932;2022-08-02T00:02:17;99765.59;;;21.40;61.57
10646;BME280;5371;49.782;9.932;2022-08-02T00:04:44;99766.75;;;21.38;61.73
10646;BME280;5371;49.782;9.932;2022-08-02T00:07:11;99770.41;;;21.37;61.82
10646;BME280;5371;49.782;9.932;2022-08-02T00:09:39;99769.59;;;21.44;61.50
10646;BME280;5371;49.782;9.932;2022-08-02T00:12:07;99768.78;;;21.44;61.62
10646;BME280;5371;49.782;9.932;2022-08-02T00:14:34;99762.78;;;21.42;61.80
10646;BME280;5371;49.782;9.932;2022-08-02T00:17:01;99762.16;;;21.48;61.52
10646;BME280;5371;49.782;9.932;2022-08-02T00:19:29;99768.47;;;21.47;61.59
10646;BME280;5371;49.782;9.932;2022-08-02T00:21:56;99759.69;;;21.54;61.44
10646;BME280;5371;49.782;9.932;2022-08-02T00:24:23;99758.81;;;21.46;61.69
10646;BME280;5371;49.782;9.932;2022-08-02T00:26:50;99752.13;;;21.42;61.82
10646;BME280;5371;49.782;9.932;2022-08-02T00:29:17;99751.09;;;21.35;62.08
10646;BME280;5371;49.782;9.932;2022-08-02T00:31:44;99745.09;;;21.33;62.32
10646;BME280;5371;49.782;9.932;2022-08-02T00:34:11;99751.75;;;21.28;62.50
10646;BME280;5371;49.782;9.932;2022-08-02T00:36:39;99755.38;;;21.27;62.62
10646;BME280;5371;49.782;9.932;2022-08-02T00:39:06;99754.03;;;21.23;62.84
10646;BME280;5371;49.782;9.932;2022-08-02T00:41:43;99759.34;;;21.23;62.95
10646;BME280;5371;49.782;9.932;2022-08-02T00:44:10;99752.84;;;21.18;63.16
10646;BME280;5371;49.782;9.932;2022-08-02T00:46:37;99756.59;;;21.15;63.33
10646;BME280;5371;49.782;9.932;2022-08-02T00:49:04;99769.19;;;21.13;63.32
10646;BME280;5371;49.782;9.932;2022-08-02T00:51:32;99760.56;;;21.11;63.75
10646;BME280;5371;49.782;9.932;2022-08-02T00:54:00;99770.50;;;21.09;63.58
10646;BME280;5371;49.782;9.932;2022-08-02T00:56:27;99774.44;;;21.05;63.87
10646;BME280;5371;49.782;9.932;2022-08-02T00:58:54;99771.44;;;21.00;64.18
10646;BME280;5371;49.782;9.932;2022-08-02T01:01:21;99775.38;;;20.96;64.39
10646;BME280;5371;49.782;9.932;2022-08-02T01:04:03;99778.03;;;20.96;64.58
10646;BME280;5371;49.782;9.932;2022-08-02T01:06:31;99770.44;;;21.01;64.62
10646;BME280;5371;49.782;9.932;2022-08-02T01:09:00;99778.72;;;20.98;64.59
10646;BME280;5371;49.782;9.932;2022-08-02T01:11:28;99771.69;;;20.89;65.06
10646;BME280;5371;49.782;9.932;2022-08-02T01:13:56;99779.50;;;20.90;64.97
10646;BME280;5371;49.782;9.932;2022-08-02T01:16:27;99781.25;;;20.82;65.23
10646;BME280;5371;49.782;9.932;2022-08-02T01:19:00;99769.94;;;20.80;65.46
10646;BME280;5371;49.782;9.932;2022-08-02T01:21:39;99772.38;;;20.73;65.68
10646;BME280;5371;49.782;9.932;2022-08-02T01:24:23;99772.69;;;20.70;65.78
10646;BME280;5371;49.782;9.932;2022-08-02T01:26:59;99770.78;;;20.63;66.09
10646;BME280;5371;49.782;9.932;2022-08-02T01:29:34;99782.31;;;20.53;66.66
10646;BME280;5371;49.782;9.932;2022-08-02T01:32:06;99788.31;;;20.56;66.58
10646;BME280;5371;49.782;9.932;2022-08-02T01:34:36;99794.22;;;20.49;67.25
10646;BME280;5371;49.782;9.932;2022-08-02T01:37:09;99786.25;;;20.49;67.11
10646;BME280;5371;49.782;9.932;2022-08-02T01:39:37;99802.16;;;20.49;67.33
10646;BME280;5371;49.782;9.932;2022-08-02T01:42:06;99790.50;;;20.42;67.68
10646;BME280;5371;49.782;9.932;2022-08-02T01:44:39;99787.31;;;20.39;68.01
10646;BME280;5371;49.782;9.932;2022-08-02T01:47:13;99787.88;;;20.33;68.44
10646;BME280;5371;49.782;9.932;2022-08-02T01:49:44;99783.31;;;20.25;68.71
10646;BME280;5371;49.782;9.932;2022-08-02T01:52:13;99786.94;;;20.24;68.83
10646;BME280;5371;49.782;9.932;2022-08-02T01:54:48;99781.63;;;20.24;68.96
10646;BME280;5371;49.782;9.932;2022-08-02T01:57:16;99789.91;;;20.21;69.06
10646;BME280;5371;49.782;9.932;2022-08-02T01:59:45;99795.38;;;20.20;69.32
10646;BME280;5371;49.782;9.932;2022-08-02T02:02:14;99798.16;;;20.18;69.19
10646;BME280;5371;49.782;9.932;2022-08-02T02:04:43;99795.09;;;20.13;69.49
10646;BME280;5371;49.782;9.932;2022-08-02T02:07:12;99805.19;;;20.09;69.74
10646;BME280;5371;49.782;9.932;2022-08-02T02:09:40;99805.19;;;20.09;69.81
10646;BME280;5371;49.782;9.932;2022-08-02T02:12:11;99800.16;;;20.06;69.78
10646;BME280;5371;49.782;9.932;2022-08-02T02:14:40;99803.91;;;20.13;69.63
10646;BME280;5371;49.782;9.932;2022-08-02T02:17:12;99789.13;;;20.11;69.80
10646;BME280;5371;49.782;9.932;2022-08-02T02:19:41;99790.63;;;20.13;69.70
10646;BME280;5371;49.782;9.932;2022-08-02T02:22:09;99792.63;;;20.11;69.89
10646;BME280;5371;49.782;9.932;2022-08-02T02:24:37;99790.94;;;20.10;69.89
10646;BME280;5371;49.782;9.932;2022-08-02T02:27:06;99793.47;;;20.12;69.89
10646;BME280;5371;49.782;9.932;2022-08-02T02:29:38;99795.69;;;20.07;70.18
10646;BME280;5371;49.782;9.932;2022-08-02T02:32:09;99794.03;;;20.06;70.35
10646;BME280;5371;49.782;9.932;2022-08-02T02:34:42;99791.28;;;19.98;70.59
10646;BME280;5371;49.782;9.932;2022-08-02T02:37:13;99796.59;;;19.98;70.57
10646;BME280;5371;49.782;9.932;2022-08-02T02:39:43;99791.75;;;19.93;70.77
10646;BME280;5371;49.782;9.932;2022-08-02T02:42:13;99790.50;;;19.88;70.95
10646;BME280;5371;49.782;9.932;2022-08-02T02:44:41;99784.34;;;19.87;71.37
10646;BME280;5371;49.782;9.932;2022-08-02T02:47:09;99783.22;;;19.90;71.18
10646;BME280;5371;49.782;9.932;2022-08-02T02:49:39;99784.44;;;19.95;71.02
10646;BME280;5371;49.782;9.932;2022-08-02T02:52:07;99775.22;;;19.99;70.85
10646;BME280;5371;49.782;9.932;2022-08-02T02:54:36;99777.88;;;19.99;70.65
10646;BME280;5371;49.782;9.932;2022-08-02T02:57:05;99785.56;;;20.02;70.65
10646;BME280;5371;49.782;9.932;2022-08-02T02:59:33;99776.59;;;20.03;70.52
10646;BME280;5371;49.782;9.932;2022-08-02T03:02:01;99778.72;;;20.00;70.55
10646;BME280;5371;49.782;9.932;2022-08-02T03:04:29;99787.19;;;20.03;70.53
10646;BME280;5371;49.782;9.932;2022-08-02T03:07:00;99793.09;;;19.97;70.69
10646;BME280;5371;49.782;9.932;2022-08-02T03:09:27;99797.13;;;20.01;70.66
10646;BME280;5371;49.782;9.932;2022-08-02T03:11:54;99791.56;;;19.95;70.80
10646;BME280;5371;49.782;9.932;2022-08-02T03:14:22;99795.47;;;20.00;70.48
10646;BME280;5371;49.782;9.932;2022-08-02T03:16:52;99796.16;;;20.02;70.21
10646;BME280;5371;49.782;9.932;2022-08-02T03:19:20;99793.50;;;20.02;69.97
10646;BME280;5371;49.782;9.932;2022-08-02T03:21:49;99794.34;;;20.03;70.09
10646;BME280;5371;49.782;9.932;2022-08-02T03:24:17;99800.63;;;20.02;70.30
10646;BME280;5371;49.782;9.932;2022-08-02T03:26:45;99803.66;;;20.07;69.82
10646;BME280;5371;49.782;9.932;2022-08-02T03:29:12;99797.97;;;20.02;69.81
10646;BME280;5371;49.782;9.932;2022-08-02T03:31:40;99801.47;;;20.02;69.93
10646;BME280;5371;49.782;9.932;2022-08-02T03:34:09;99795.22;;;19.94;69.86
10646;BME280;5371;49.782;9.932;2022-08-02T03:36:37;99801.34;;;19.94;69.74
10646;BME280;5371;49.782;9.932;2022-08-02T03:39:06;99789.38;;;19.90;70.09
10646;BME280;5371;49.782;9.932;2022-08-02T03:41:35;99795.66;;;19.89;70.15
10646;BME280;5371;49.782;9.932;2022-08-02T03:44:04;99790.09;;;19.83;70.61
10646;BME280;5371;49.782;9.932;2022-08-02T03:46:32;99799.03;;;19.82;70.90
10646;BME280;5371;49.782;9.932;2022-08-02T03:49:03;99801.28;;;19.76;71.16
10646;BME280;5371;49.782;9.932;2022-08-02T03:51:31;99802.28;;;19.75;71.45
10646;BME280;5371;49.782;9.932;2022-08-02T03:53:58;99805.22;;;19.72;71.55
10646;BME280;5371;49.782;9.932;2022-08-02T03:56:27;99800.50;;;19.66;71.83
10646;BME280;5371;49.782;9.932;2022-08-02T03:59:06;99802.59;;;19.63;72.17
10646;BME280;5371;49.782;9.932;2022-08-02T04:01:34;99804.53;;;19.70;72.09
10646;BME280;5371;49.782;9.932;2022-08-02T04:04:04;99806.22;;;19.62;72.21
10646;BME280;5371;49.782;9.932;2022-08-02T04:06:32;99809.31;;;19.57;72.56
10646;BME280;5371;49.782;9.932;2022-08-02T04:09:00;99826.47;;;19.53;72.56
10646;BME280;5371;49.782;9.932;2022-08-02T04:11:27;99823.97;;;19.52;72.58
10646;BME280;5371;49.782;9.932;2022-08-02T04:13:58;99825.09;;;19.49;72.96
10646;BME280;5371;49.782;9.932;2022-08-02T04:16:36;99834.03;;;19.48;72.96
10646;BME280;5371;49.782;9.932;2022-08-02T04:19:07;99840.28;;;19.47;73.14
10646;BME280;5371;49.782;9.932;2022-08-02T04:21:38;99833.03;;;19.49;73.35
10646;BME280;5371;49.782;9.932;2022-08-02T04:24:08;99832.75;;;19.52;73.46
10646;BME280;5371;49.782;9.932;2022-08-02T04:26:37;99829.41;;;19.50;73.36
10646;BME280;5371;49.782;9.932;2022-08-02T04:29:07;99834.72;;;19.50;73.29
10646;BME280;5371;49.782;9.932;2022-08-02T04:31:36;99840.00;;;19.50;73.37
10646;BME280;5371;49.782;9.932;2022-08-02T04:34:03;99836.81;;;19.47;73.55
10646;BME280;5371;49.782;9.932;2022-08-02T04:36:30;99835.53;;;19.51;73.25
10646;BME280;5371;49.782;9.932;2022-08-02T04:38:58;99841.41;;;19.44;73.35
10646;BME280;5371;49.782;9.932;2022-08-02T04:41:36;99847.81;;;19.42;73.68
10646;BME280;5371;49.782;9.932;2022-08-02T04:44:03;99846.84;;;19.43;73.37
10646;BME280;5371;49.782;9.932;2022-08-02T04:46:31;99853.13;;;19.42;73.68
10646;BME280;5371;49.782;9.932;2022-08-02T04:49:00;99846.44;;;19.38;73.65
10646;BME280;5371;49.782;9.932;2022-08-02T04:51:27;99834.88;;;19.39;73.87
10646;BME280;5371;49.782;9.932;2022-08-02T04:53:54;99836.25;;;19.43;73.69
10646;BME280;5371;49.782;9.932;2022-08-02T04:56:21;99837.63;;;19.47;73.56
10646;BME280;5371;49.782;9.932;2022-08-02T04:58:48;99832.75;;;19.52;73.39
10646;BME280;5371;49.782;9.932;2022-08-02T05:01:15;99842.50;;;19.61;73.06
10646;BME280;5371;49.782;9.932;2022-08-02T05:03:41;99833.00;;;19.68;72.69
10646;BME280;5371;49.782;9.932;2022-08-02T05:06:11;99841.06;;;19.76;72.38
10646;BME280;5371;49.782;9.932;2022-08-02T05:08:38;99838.53;;;19.85;72.05
10646;BME280;5371;49.782;9.932;2022-08-02T05:11:05;99842.13;;;19.93;71.22
10646;BME280;5371;49.782;9.932;2022-08-02T05:13:32;99843.78;;;19.94;71.14
10646;BME280;5371;49.782;9.932;2022-08-02T05:15:59;99842.28;;;19.92;71.21
10646;BME280;5371;49.782;9.932;2022-08-02T05:18:27;99841.41;;;20.01;70.82
10646;BME280;5371;49.782;9.932;2022-08-02T05:20:54;99847.69;;;20.00;70.83
10646;BME280;5371;49.782;9.932;2022-08-02T05:23:23;99848.53;;;20.00;70.76
10646;BME280;5371;49.782;9.932;2022-08-02T05:25:50;99854.31;;;20.13;70.63
10646;BME280;5371;49.782;9.932;2022-08-02T05:28:17;99846.75;;;20.18;70.33
10646;BME280;5371;49.782;9.932;2022-08-02T05:30:44;99847.16;;;20.24;70.16
10646;BME280;5371;49.782;9.932;2022-08-02T05:33:11;99856.34;;;20.29;69.89
10646;BME280;5371;49.782;9.932;2022-08-02T05:35:37;99854.34;;;20.31;69.65
10646;BME280;5371;49.782;9.932;2022-08-02T05:38:04;99858.16;;;20.38;69.02
10646;BME280;5371;49.782;9.932;2022-08-02T05:40:33;99858.03;;;20.58;68.33
10646;BME280;5371;49.782;9.932;2022-08-02T05:43:00;99846.13;;;20.62;67.86
10646;BME280;5371;49.782;9.932;2022-08-02T05:45:32;99849.97;;;20.67;68.01
10646;BME280;5371;49.782;9.932;2022-08-02T05:47:59;99852.56;;;20.77;67.83
10646;BME280;5371;49.782;9.932;2022-08-02T05:50:26;99859.97;;;21.01;66.87
10646;BME280;5371;49.782;9.932;2022-08-02T05:53:02;99859.69;;;20.94;66.75
10646;BME280;5371;49.782;9.932;2022-08-02T05:55:34;99863.19;;;20.95;66.65
10646;BME280;5371;49.782;9.932;2022-08-02T05:58:05;99866.03;;;20.93;66.80
10646;BME280;5371;49.782;9.932;2022-08-02T06:00:33;99860.47;;;21.04;66.15
10646;BME280;5371;49.782;9.932;2022-08-02T06:03:14;99869.75;;;21.00;66.22
10646;BME280;5371;49.782;9.932;2022-08-02T06:05:50;99867.09;;;21.00;66.40
10646;BME280;5371;49.782;9.932;2022-08-02T06:08:20;99867.09;;;21.00;66.51
10646;BME280;5371;49.782;9.932;2022-08-02T06:10:50;99861.84;;;21.08;66.13
10646;BME280;5371;49.782;9.932;2022-08-02T06:13:19;99861.63;;;21.02;66.16
10646;BME280;5371;49.782;9.932;2022-08-02T06:15:50;99861.63;;;21.02;66.13
10646;BME280;5371;49.782;9.932;2022-08-02T06:18:18;99856.31;;;21.37;65.50
10646;BME280;5371;49.782;9.932;2022-08-02T06:20:48;99859.84;;;21.46;64.58
10646;BME280;5371;49.782;9.932;2022-08-02T06:23:16;99861.63;;;21.37;64.74
10646;BME280;5371;49.782;9.932;2022-08-02T06:25:45;99860.06;;;21.52;64.00
10646;BME280;5371;49.782;9.932;2022-08-02T06:28:15;99857.25;;;21.54;63.92
10646;BME280;5371;49.782;9.932;2022-08-02T06:30:43;99854.00;;;21.68;63.28
10646;BME280;5371;49.782;9.932;2022-08-02T06:33:10;99851.34;;;21.68;63.34
10646;BME280;5371;49.782;9.932;2022-08-02T06:35:43;99841.03;;;21.65;62.95
10646;BME280;5371;49.782;9.932;2022-08-02T06:38:17;99844.09;;;21.78;62.29
10646;BME280;5371;49.782;9.932;2022-08-02T06:40:50;99849.69;;;21.67;62.54
10646;BME280;5371;49.782;9.932;2022-08-02T06:43:28;99844.44;;;21.75;62.59
10646;BME280;5371;49.782;9.932;2022-08-02T06:45:57;99850.44;;;21.85;62.40
10646;BME280;5371;49.782;9.932;2022-08-02T06:48:26;99849.84;;;21.91;61.97
10646;BME280;5371;49.782;9.932;2022-08-02T06:50:53;99850.59;;;22.01;62.05
10646;BME280;5371;49.782;9.932;2022-08-02T06:53:20;99853.44;;;22.08;61.22
10646;BME280;5371;49.782;9.932;2022-08-02T06:55:47;99860.31;;;22.19;60.64
10646;BME280;5371;49.782;9.932;2022-08-02T06:58:14;99857.06;;;22.49;59.44
10646;BME280;5371;49.782;9.932;2022-08-02T07:00:42;99853.75;;;22.39;60.36
10646;BME280;5371;49.782;9.932;2022-08-02T07:03:12;99858.75;;;22.58;59.37
10646;BME280;5371;49.782;9.932;2022-08-02T07:05:39;99857.44;;;22.54;59.37
10646;BME280;5371;49.782;9.932;2022-08-02T07:08:06;99857.47;;;22.70;58.83
10646;BME280;5371;49.782;9.932;2022-08-02T07:10:33;99856.06;;;22.92;57.92
10646;BME280;5371;49.782;9.932;2022-08-02T07:13:00;99860.22;;;23.03;57.90
10646;BME280;5371;49.782;9.932;2022-08-02T07:15:27;99859.38;;;23.43;56.43
10646;BME280;5371;49.782;9.932;2022-08-02T07:17:55;99863.31;;;23.87;55.27
10646;BME280;5371;49.782;9.932;2022-08-02T07:20:22;99860.66;;;24.43;53.95
10646;BME280;5371;49.782;9.932;2022-08-02T07:22:49;99857.38;;;24.94;52.47
10646;BME280;5371;49.782;9.932;2022-08-02T07:25:16;99852.25;;;25.30;51.19
10646;BME280;5371;49.782;9.932;2022-08-02T07:27:43;99851.34;;;25.53;50.40
10646;BME280;5371;49.782;9.932;2022-08-02T07:30:10;99852.22;;;25.68;49.70
10646;BME280;5371;49.782;9.932;2022-08-02T07:32:37;99848.19;;;25.87;49.42
10646;BME280;5371;49.782;9.932;2022-08-02T07:35:07;99851.16;;;26.21;49.02
10646;BME280;5371;49.782;9.932;2022-08-02T07:37:35;99853.72;;;26.44;47.72
10646;BME280;5371;49.782;9.932;2022-08-02T07:40:04;99843.81;;;26.80;46.65
10646;BME280;5371;49.782;9.932;2022-08-02T07:42:31;99853.63;;;27.09;46.17
10646;BME280;5371;49.782;9.932;2022-08-02T07:44:58;99855.22;;;27.74;44.24
10646;BME280;5371;49.782;9.932;2022-08-02T07:47:25;99843.97;;;27.92;43.80
10646;BME280;5371;49.782;9.932;2022-08-02T07:49:52;99848.41;;;28.13;43.53
10646;BME280;5371;49.782;9.932;2022-08-02T07:52:20;99839.59;;;28.19;43.27
10646;BME280;5371;49.782;9.932;2022-08-02T07:54:47;99847.28;;;28.28;43.61
10646;BME280;5371;49.782;9.932;2022-08-02T07:57:14;99848.78;;;28.44;42.15
10646;BME280;5371;49.782;9.932;2022-08-02T07:59:41;99840.72;;;28.44;42.36
10646;BME280;5371;49.782;9.932;2022-08-02T08:02:08;99846.91;;;28.45;41.95
10646;BME280;5371;49.782;9.932;2022-08-02T08:04:35;99839.09;;;28.56;41.76
10646;BME280;5371;49.782;9.932;2022-08-02T08:07:02;99835.28;;;28.92;41.34
10646;BME280;5371;49.782;9.932;2022-08-02T08:09:32;99830.97;;;29.44;39.96
10646;BME280;5371;49.782;9.932;2022-08-02T08:11:59;99834.91;;;29.54;39.68
10646;BME280;5371;49.782;9.932;2022-08-02T08:14:26;99835.88;;;29.99;38.73
10646;BME280;5371;49.782;9.932;2022-08-02T08:16:53;99830.94;;;29.83;39.00
10646;BME280;5371;49.782;9.932;2022-08-02T08:19:21;99833.03;;;29.68;38.89
10646;BME280;5371;49.782;9.932;2022-08-02T08:21:48;99833.84;;;29.62;39.24
10646;BME280;5371;49.782;9.932;2022-08-02T08:24:15;99831.34;;;29.80;38.72
10646;BME280;5371;49.782;9.932;2022-08-02T08:26:43;99840.34;;;30.25;37.83
10646;BME280;5371;49.782;9.932;2022-08-02T08:29:10;99841.06;;;30.59;37.41
10646;BME280;5371;49.782;9.932;2022-08-02T08:31:37;99835.28;;;30.42;37.20
10646;BME280;5371;49.782;9.932;2022-08-02T08:34:04;99829.06;;;30.48;37.44
10646;BME280;5371;49.782;9.932;2022-08-02T08:36:31;99830.09;;;30.54;37.26
10646;BME280;5371;49.782;9.932;2022-08-02T08:38:59;99832.94;;;30.65;36.24
10646;BME280;5371;49.782;9.932;2022-08-02T08:41:26;99830.41;;;31.02;35.00
10646;BME280;5371;49.782;9.932;2022-08-02T08:43:55;99831.38;;;31.39;33.58
10646;BME280;5371;49.782;9.932;2022-08-02T08:46:26;99825.53;;;30.85;34.39
10646;BME280;5371;49.782;9.932;2022-08-02T08:49:00;99816.94;;;31.27;33.60
10646;BME280;5371;49.782;9.932;2022-08-02T08:51:30;99828.22;;;31.17;34.03
10646;BME280;5371;49.782;9.932;2022-08-02T08:54:02;99824.47;;;31.43;33.72
10646;BME280;5371;49.782;9.932;2022-08-02T08:56:33;99824.16;;;31.08;34.20
10646;BME280;5371;49.782;9.932;2022-08-02T08:59:03;99821.09;;;31.29;33.64
10646;BME280;5371;49.782;9.932;2022-08-02T09:01:33;99819.66;;;31.70;32.59
10646;BME280;5371;49.782;9.932;2022-08-02T09:04:00;99824.25;;;31.87;32.13
10646;BME280;5371;49.782;9.932;2022-08-02T09:06:28;99817.53;;;31.53;32.57
10646;BME280;5371;49.782;9.932;2022-08-02T09:08:55;99817.09;;;32.18;32.26
10646;BME280;5371;49.782;9.932;2022-08-02T09:11:23;99822.72;;;32.16;31.26
10646;BME280;5371;49.782;9.932;2022-08-02T09:13:52;99810.31;;;32.27;31.42
10646;BME280;5371;49.782;9.932;2022-08-02T09:16:34;99813.91;;;32.03;31.83
10646;BME280;5371;49.782;9.932;2022-08-02T09:19:15;99823.09;;;32.20;31.34
10646;BME280;5371;49.782;9.932;2022-08-02T09:21:43;99821.81;;;32.22;30.95
10646;BME280;5371;49.782;9.932;2022-08-02T09:24:17;99824.94;;;32.01;31.21
10646;BME280;5371;49.782;9.932;2022-08-02T09:26:45;99825.09;;;32.24;31.01
10646;BME280;5371;49.782;9.932;2022-08-02T09:29:13;99818.59;;;32.32;30.41
10646;BME280;5371;49.782;9.932;2022-08-02T09:31:42;99823.00;;;32.75;30.07
10646;BME280;5371;49.782;9.932;2022-08-02T09:34:10;99814.38;;;33.07;29.12
10646;BME280;5371;49.782;9.932;2022-08-02T09:36:39;99817.97;;;32.60;29.03
10646;BME280;5371;49.782;9.932;2022-08-02T09:39:09;99820.47;;;32.31;29.21
10646;BME280;5371;49.782;9.932;2022-08-02T09:41:38;99822.75;;;32.46;29.09
10646;BME280;5371;49.782;9.932;2022-08-02T09:44:08;99828.78;;;32.60;28.82
10646;BME280;5371;49.782;9.932;2022-08-02T09:46:36;99817.44;;;32.69;28.93
10646;BME280;5371;49.782;9.932;2022-08-02T09:49:07;99814.44;;;32.89;28.74
10646;BME280;5371;49.782;9.932;2022-08-02T09:51:36;99812.72;;;33.06;28.10
10646;BME280;5371;49.782;9.932;2022-08-02T09:54:05;99813.84;;;33.40;28.16
10646;BME280;5371;49.782;9.932;2022-08-02T09:56:43;99813.28;;;33.73;27.19
10646;BME280;5371;49.782;9.932;2022-08-02T09:59:11;99813.81;;;33.87;26.75
10646;BME280;5371;49.782;9.932;2022-08-02T10:01:39;99807.97;;;33.55;27.24
10646;BME280;5371;49.782;9.932;2022-08-02T10:04:09;99809.28;;;32.99;27.98
10646;BME280;5371;49.782;9.932;2022-08-02T10:06:37;99801.19;;;32.99;27.60
10646;BME280;5371;49.782;9.932;2022-08-02T10:09:05;99798.97;;;33.20;27.51
10646;BME280;5371;49.782;9.932;2022-08-02T10:11:33;99788.53;;;33.58;27.22
10646;BME280;5371;49.782;9.932;2022-08-02T10:14:02;99791.94;;;33.42;27.41
10646;BME280;5371;49.782;9.932;2022-08-02T10:16:32;99791.94;;;33.42;27.49
10646;BME280;5371;49.782;9.932;2022-08-02T10:19:00;99782.50;;;33.56;27.08
10646;BME280;5371;49.782;9.932;2022-08-02T10:21:33;99784.97;;;33.69;26.73
10646;BME280;5371;49.782;9.932;2022-08-02T10:24:05;99783.66;;;33.95;26.42
10646;BME280;5371;49.782;9.932;2022-08-02T10:26:32;99782.38;;;33.51;27.50
10646;BME280;5371;49.782;9.932;2022-08-02T10:28:59;99779.94;;;33.38;28.00
10646;BME280;5371;49.782;9.932;2022-08-02T10:31:32;99775.63;;;33.07;28.15
10646;BME280;5371;49.782;9.932;2022-08-02T10:34:02;99778.34;;;33.07;28.18
10646;BME280;5371;49.782;9.932;2022-08-02T10:36:32;99769.88;;;33.03;28.14
10646;BME280;5371;49.782;9.932;2022-08-02T10:39:02;99769.34;;;33.48;27.56
10646;BME280;5371;49.782;9.932;2022-08-02T10:41:46;99768.59;;;34.16;26.15
10646;BME280;5371;49.782;9.932;2022-08-02T10:44:21;99766.97;;;34.15;25.70
10646;BME280;5371;49.782;9.932;2022-08-02T10:46:48;99765.22;;;34.09;24.91
10646;BME280;5371;49.782;9.932;2022-08-02T10:49:16;99766.13;;;34.14;25.02
10646;BME280;5371;49.782;9.932;2022-08-02T10:52:09;99751.38;;;34.22;24.57
10646;BME280;5371;49.782;9.932;2022-08-02T10:54:38;99754.09;;;33.94;24.53
10646;BME280;5371;49.782;9.932;2022-08-02T10:57:20;99757.16;;;34.26;24.56
10646;BME280;5371;49.782;9.932;2022-08-02T10:59:48;99752.94;;;34.46;24.35
10646;BME280;5371;49.782;9.932;2022-08-02T11:02:37;99753.41;;;34.15;24.59
10646;BME280;5371;49.782;9.932;2022-08-02T11:05:14;99743.91;;;33.49;25.38
10646;BME280;5371;49.782;9.932;2022-08-02T11:07:45;99750.22;;;33.20;25.57
10646;BME280;5371;49.782;9.932;2022-08-02T11:10:30;99747.66;;;33.13;25.86
10646;BME280;5371;49.782;9.932;2022-08-02T11:13:07;99743.72;;;33.91;25.27
10646;BME280;5371;49.782;9.932;2022-08-02T11:15:53;99746.72;;;34.06;24.40
10646;BME280;5371;49.782;9.932;2022-08-02T11:18:23;99740.63;;;33.99;24.49
10646;BME280;5371;49.782;9.932;2022-08-02T11:21:20;99736.09;;;33.76;25.34
10646;BME280;5371;49.782;9.932;2022-08-02T11:23:49;99736.84;;;34.40;24.34
10646;BME280;5371;49.782;9.932;2022-08-02T11:26:41;99732.09;;;34.07;24.23
10646;BME280;5371;49.782;9.932;2022-08-02T11:29:09;99728.34;;;33.33;25.56
10646;BME280;5371;49.782;9.932;2022-08-02T11:31:41;99725.28;;;33.18;25.68
10646;BME280;5371;49.782;9.932;2022-08-02T11:34:09;99723.22;;;33.71;24.68
10646;BME280;5371;49.782;9.932;2022-08-02T11:36:43;99720.84;;;33.23;25.48
10646;BME280;5371;49.782;9.932;2022-08-02T11:39:16;99727.72;;;32.84;25.63
10646;BME280;5371;49.782;9.932;2022-08-02T11:41:48;99715.75;;;33.03;25.49
10646;BME280;5371;49.782;9.932;2022-08-02T11:44:15;99711.69;;;33.64;24.66
10646;BME280;5371;49.782;9.932;2022-08-02T11:46:43;99718.09;;;33.98;24.23
10646;BME280;5371;49.782;9.932;2022-08-02T11:49:11;99718.91;;;33.59;24.55
10646;BME280;5371;49.782;9.932;2022-08-02T11:51:49;99711.00;;;33.57;24.67
10646;BME280;5371;49.782;9.932;2022-08-02T11:54:27;99702.78;;;32.82;25.42
10646;BME280;5371;49.782;9.932;2022-08-02T11:56:54;99706.28;;;32.29;26.41
10646;BME280;5371;49.782;9.932;2022-08-02T11:59:36;99702.91;;;32.16;26.79
10646;BME280;5371;49.782;9.932;2022-08-02T12:02:03;99714.59;;;31.98;27.01
10646;BME280;5371;49.782;9.932;2022-08-02T12:04:30;99716.94;;;31.58;27.11
10646;BME280;5371;49.782;9.932;2022-08-02T12:06:59;99705.44;;;31.44;27.29
10646;BME280;5371;49.782;9.932;2022-08-02T12:09:29;99705.31;;;31.57;27.41
10646;BME280;5371;49.782;9.932;2022-08-02T12:11:58;99704.41;;;31.45;28.04
10646;BME280;5371;49.782;9.932;2022-08-02T12:14:27;99704.09;;;31.53;27.59
10646;BME280;5371;49.782;9.932;2022-08-02T12:16:57;99703.97;;;31.48;27.45
10646;BME280;5371;49.782;9.932;2022-08-02T12:19:43;99695.03;;;31.30;27.58
10646;BME280;5371;49.782;9.932;2022-08-02T12:22:12;99702.19;;;31.17;27.95
10646;BME280;5371;49.782;9.932;2022-08-02T12:24:43;99712.38;;;31.15;28.20
10646;BME280;5371;49.782;9.932;2022-08-02T12:27:29;99699.94;;;30.90;28.12
10646;BME280;5371;49.782;9.932;2022-08-02T12:30:00;99691.44;;;30.68;28.53
10646;BME280;5371;49.782;9.932;2022-08-02T12:32:28;99695.22;;;30.85;28.15
10646;BME280;5371;49.782;9.932;2022-08-02T12:35:04;99688.94;;;30.91;27.96
10646;BME280;5371;49.782;9.932;2022-08-02T12:37:32;99684.94;;;30.75;28.25
10646;BME280;5371;49.782;9.932;2022-08-02T12:40:16;99681.72;;;30.60;28.60
10646;BME280;5371;49.782;9.932;2022-08-02T12:42:47;99690.06;;;30.52;28.87
10646;BME280;5371;49.782;9.932;2022-08-02T12:45:15;99684.88;;;30.19;28.82
10646;BME280;5371;49.782;9.932;2022-08-02T12:47:46;99684.53;;;30.09;29.25
10646;BME280;5371;49.782;9.932;2022-08-02T12:50:16;99687.19;;;30.16;29.59
10646;BME280;5371;49.782;9.932;2022-08-02T12:52:43;99676.16;;;30.55;28.51
10646;BME280;5371;49.782;9.932;2022-08-02T12:55:16;99674.69;;;30.59;28.59
10646;BME280;5371;49.782;9.932;2022-08-02T12:57:54;99674.91;;;30.82;28.18
10646;BME280;5371;49.782;9.932;2022-08-02T13:00:23;99675.06;;;31.12;27.56
10646;BME280;5371;49.782;9.932;2022-08-02T13:02:51;99684.28;;;30.98;27.04
10646;BME280;5371;49.782;9.932;2022-08-02T13:05:18;99679.84;;;30.85;27.31
10646;BME280;5371;49.782;9.932;2022-08-02T13:07:45;99667.66;;;30.58;27.96
10646;BME280;5371;49.782;9.932;2022-08-02T13:10:14;99671.94;;;30.66;28.24
10646;BME280;5371;49.782;9.932;2022-08-02T13:12:41;99669.16;;;30.72;27.90
10646;BME280;5371;49.782;9.932;2022-08-02T13:15:09;99674.13;;;30.75;27.90
10646;BME280;5371;49.782;9.932;2022-08-02T13:17:37;99677.59;;;30.82;27.71
10646;BME280;5371;49.782;9.932;2022-08-02T13:20:05;99676.94;;;30.31;28.20
10646;BME280;5371;49.782;9.932;2022-08-02T13:22:33;99667.28;;;30.48;28.04
10646;BME280;5371;49.782;9.932;2022-08-02T13:25:00;99673.41;;;30.30;27.92